Walker Springs, Alabama
Current Conditions -  °F | °C
As of 3:13 AM on Monday 24 Nov 2014 (Local Time) from KGZH Reporting Station
Haze Haze  
Wind Chill: 64°   Ceiling: 400
Heat Index: 64°   Visibility: 1.5mi
Dew Point: 63°   Wind: 5mph
Humidity: 96%   Direction: 180°S
Pressure: 29.76"   Gusts: NA
Location:  31.54°N, 87.79°W
Report Text: KGZH 240913Z AUTO 18004KT 1 1/2SM BR BKN004 18/17 A2976 RMK AO2 T01780172
Loading
Personal Weather Stations






























Interactive Weather Map New forecast layout! Learn more

10-Day Weather Forecast

Advertisements
Track Severe Weather on mobile